sensor_id;sensor_type;location;lat;lon;timestamp;P1;durP1;ratioP1;P2;durP2;ratioP2
79460;SDS011;68929;42.666;23.324;2023-12-20T00:00:01;48.40;;;34.70;;
79460;SDS011;68929;42.666;23.324;2023-12-20T00:02:27;47.47;;;31.13;;
79460;SDS011;68929;42.666;23.324;2023-12-20T00:04:52;45.47;;;32.33;;
79460;SDS011;68929;42.666;23.324;2023-12-20T00:07:17;56.60;;;38.03;;
79460;SDS011;68929;42.666;23.324;2023-12-20T00:09:43;51.00;;;34.50;;
79460;SDS011;68929;42.666;23.324;2023-12-20T00:12:09;49.22;;;34.97;;
79460;SDS011;68929;42.666;23.324;2023-12-20T00:14:34;52.17;;;37.30;;
79460;SDS011;68929;42.666;23.324;2023-12-20T00:17:00;49.35;;;36.00;;
79460;SDS011;68929;42.666;23.324;2023-12-20T00:19:25;52.90;;;39.72;;
79460;SDS011;68929;42.666;23.324;2023-12-20T00:21:51;53.53;;;38.40;;
79460;SDS011;68929;42.666;23.324;2023-12-20T00:24:19;62.70;;;41.85;;
79460;SDS011;68929;42.666;23.324;2023-12-20T00:26:45;61.90;;;44.55;;
79460;SDS011;68929;42.666;23.324;2023-12-20T00:29:11;67.57;;;48.80;;
79460;SDS011;68929;42.666;23.324;2023-12-20T00:31:37;70.25;;;47.22;;
79460;SDS011;68929;42.666;23.324;2023-12-20T00:34:02;53.03;;;36.63;;
79460;SDS011;68929;42.666;23.324;2023-12-20T00:36:28;48.72;;;34.13;;
79460;SDS011;68929;42.666;23.324;2023-12-20T00:38:53;49.60;;;35.70;;
79460;SDS011;68929;42.666;23.324;2023-12-20T00:41:18;51.05;;;38.35;;
79460;SDS011;68929;42.666;23.324;2023-12-20T00:43:44;51.95;;;36.40;;
79460;SDS011;68929;42.666;23.324;2023-12-20T00:46:09;56.83;;;39.88;;
79460;SDS011;68929;42.666;23.324;2023-12-20T00:48:35;55.17;;;39.00;;
79460;SDS011;68929;42.666;23.324;2023-12-20T00:51:00;57.80;;;40.03;;
79460;SDS011;68929;42.666;23.324;2023-12-20T00:53:25;53.17;;;38.65;;
79460;SDS011;68929;42.666;23.324;2023-12-20T00:55:51;57.35;;;38.28;;
79460;SDS011;68929;42.666;23.324;2023-12-20T00:58:16;58.63;;;40.00;;
79460;SDS011;68929;42.666;23.324;2023-12-20T01:00:42;58.35;;;40.67;;
79460;SDS011;68929;42.666;23.324;2023-12-20T01:03:08;58.60;;;39.70;;
79460;SDS011;68929;42.666;23.324;2023-12-20T01:05:33;56.30;;;37.78;;
79460;SDS011;68929;42.666;23.324;2023-12-20T01:07:59;53.05;;;38.03;;
79460;SDS011;68929;42.666;23.324;2023-12-20T01:10:24;57.70;;;38.17;;
79460;SDS011;68929;42.666;23.324;2023-12-20T01:12:53;55.15;;;37.03;;
79460;SDS011;68929;42.666;23.324;2023-12-20T01:15:18;56.97;;;37.30;;
79460;SDS011;68929;42.666;23.324;2023-12-20T01:17:44;52.35;;;37.97;;
79460;SDS011;68929;42.666;23.324;2023-12-20T01:20:09;52.50;;;37.67;;
79460;SDS011;68929;42.666;23.324;2023-12-20T01:22:35;56.28;;;40.60;;
79460;SDS011;68929;42.666;23.324;2023-12-20T01:25:01;53.78;;;38.72;;
79460;SDS011;68929;42.666;23.324;2023-12-20T01:27:27;58.20;;;39.63;;
79460;SDS011;68929;42.666;23.324;2023-12-20T01:29:52;59.60;;;38.22;;
79460;SDS011;68929;42.666;23.324;2023-12-20T01:32:18;50.47;;;35.53;;
79460;SDS011;68929;42.666;23.324;2023-12-20T01:34:43;42.88;;;28.25;;
79460;SDS011;68929;42.666;23.324;2023-12-20T01:37:09;43.50;;;30.13;;
79460;SDS011;68929;42.666;23.324;2023-12-20T01:39:34;38.35;;;27.95;;
79460;SDS011;68929;42.666;23.324;2023-12-20T01:41:59;38.47;;;26.85;;
79460;SDS011;68929;42.666;23.324;2023-12-20T01:44:25;42.00;;;28.52;;
79460;SDS011;68929;42.666;23.324;2023-12-20T01:46:50;37.30;;;24.95;;
79460;SDS011;68929;42.666;23.324;2023-12-20T01:49:16;35.33;;;25.33;;
79460;SDS011;68929;42.666;23.324;2023-12-20T01:51:41;34.50;;;24.30;;
79460;SDS011;68929;42.666;23.324;2023-12-20T01:54:08;38.17;;;26.63;;
79460;SDS011;68929;42.666;23.324;2023-12-20T01:56:33;34.10;;;24.27;;
79460;SDS011;68929;42.666;23.324;2023-12-20T01:58:59;41.45;;;29.65;;
79460;SDS011;68929;42.666;23.324;2023-12-20T02:01:25;41.03;;;27.92;;
79460;SDS011;68929;42.666;23.324;2023-12-20T02:03:53;37.40;;;27.13;;
79460;SDS011;68929;42.666;23.324;2023-12-20T02:06:19;40.45;;;30.17;;
79460;SDS011;68929;42.666;23.324;2023-12-20T02:08:48;42.50;;;30.20;;
79460;SDS011;68929;42.666;23.324;2023-12-20T02:11:15;39.90;;;28.67;;
79460;SDS011;68929;42.666;23.324;2023-12-20T02:13:43;42.78;;;30.40;;
79460;SDS011;68929;42.666;23.324;2023-12-20T02:16:08;49.15;;;32.60;;
79460;SDS011;68929;42.666;23.324;2023-12-20T02:18:34;41.45;;;30.25;;
79460;SDS011;68929;42.666;23.324;2023-12-20T02:20:59;51.67;;;35.47;;
79460;SDS011;68929;42.666;23.324;2023-12-20T02:23:25;53.00;;;35.38;;
79460;SDS011;68929;42.666;23.324;2023-12-20T02:25:50;45.17;;;32.97;;
79460;SDS011;68929;42.666;23.324;2023-12-20T02:28:16;51.40;;;36.00;;
79460;SDS011;68929;42.666;23.324;2023-12-20T02:30:41;51.22;;;35.15;;
79460;SDS011;68929;42.666;23.324;2023-12-20T02:33:07;48.00;;;33.13;;
79460;SDS011;68929;42.666;23.324;2023-12-20T02:35:36;54.47;;;37.90;;
79460;SDS011;68929;42.666;23.324;2023-12-20T02:38:01;45.28;;;34.22;;
79460;SDS011;68929;42.666;23.324;2023-12-20T02:40:27;49.90;;;36.47;;
79460;SDS011;68929;42.666;23.324;2023-12-20T02:42:52;61.08;;;45.05;;
79460;SDS011;68929;42.666;23.324;2023-12-20T02:45:18;72.60;;;50.35;;
79460;SDS011;68929;42.666;23.324;2023-12-20T02:47:43;80.18;;;55.60;;
79460;SDS011;68929;42.666;23.324;2023-12-20T02:50:08;62.97;;;44.53;;
79460;SDS011;68929;42.666;23.324;2023-12-20T02:52:34;74.53;;;51.47;;
79460;SDS011;68929;42.666;23.324;2023-12-20T02:54:59;67.50;;;48.03;;
79460;SDS011;68929;42.666;23.324;2023-12-20T02:57:25;64.35;;;47.63;;
79460;SDS011;68929;42.666;23.324;2023-12-20T02:59:50;63.83;;;47.45;;
79460;SDS011;68929;42.666;23.324;2023-12-20T03:02:15;77.70;;;55.15;;
79460;SDS011;68929;42.666;23.324;2023-12-20T03:04:41;89.95;;;62.97;;
79460;SDS011;68929;42.666;23.324;2023-12-20T03:07:06;80.38;;;56.90;;
79460;SDS011;68929;42.666;23.324;2023-12-20T03:09:31;77.85;;;56.28;;
79460;SDS011;68929;42.666;23.324;2023-12-20T03:11:57;84.97;;;61.85;;
79460;SDS011;68929;42.666;23.324;2023-12-20T03:14:22;84.15;;;60.20;;
79460;SDS011;68929;42.666;23.324;2023-12-20T03:16:51;83.88;;;58.15;;
79460;SDS011;68929;42.666;23.324;2023-12-20T03:19:17;87.22;;;62.60;;
79460;SDS011;68929;42.666;23.324;2023-12-20T03:21:44;70.20;;;50.42;;
79460;SDS011;68929;42.666;23.324;2023-12-20T03:24:10;64.93;;;44.45;;
79460;SDS011;68929;42.666;23.324;2023-12-20T03:26:35;60.03;;;43.83;;
79460;SDS011;68929;42.666;23.324;2023-12-20T03:29:00;57.60;;;40.85;;
79460;SDS011;68929;42.666;23.324;2023-12-20T03:31:26;52.33;;;36.17;;
79460;SDS011;68929;42.666;23.324;2023-12-20T03:33:51;49.97;;;35.42;;
79460;SDS011;68929;42.666;23.324;2023-12-20T03:36:18;50.20;;;37.50;;
79460;SDS011;68929;42.666;23.324;2023-12-20T03:38:44;61.95;;;41.97;;
79460;SDS011;68929;42.666;23.324;2023-12-20T03:41:11;57.15;;;43.22;;
79460;SDS011;68929;42.666;23.324;2023-12-20T03:43:38;56.78;;;40.25;;
79460;SDS011;68929;42.666;23.324;2023-12-20T03:46:04;53.65;;;40.53;;
79460;SDS011;68929;42.666;23.324;2023-12-20T03:48:32;54.35;;;39.63;;
79460;SDS011;68929;42.666;23.324;2023-12-20T03:50:57;56.60;;;41.28;;
79460;SDS011;68929;42.666;23.324;2023-12-20T03:53:23;63.70;;;45.50;;
79460;SDS011;68929;42.666;23.324;2023-12-20T03:55:48;66.50;;;49.08;;
79460;SDS011;68929;42.666;23.324;2023-12-20T03:58:13;68.82;;;51.30;;
79460;SDS011;68929;42.666;23.324;2023-12-20T04:00:39;81.88;;;55.53;;
79460;SDS011;68929;42.666;23.324;2023-12-20T04:03:04;66.93;;;49.33;;
79460;SDS011;68929;42.666;23.324;2023-12-20T04:05:30;73.78;;;52.13;;
79460;SDS011;68929;42.666;23.324;2023-12-20T04:08:01;69.22;;;51.85;;
79460;SDS011;68929;42.666;23.324;2023-12-20T04:10:26;92.20;;;66.25;;
79460;SDS011;68929;42.666;23.324;2023-12-20T04:12:52;106.07;;;75.75;;
79460;SDS011;68929;42.666;23.324;2023-12-20T04:15:17;91.57;;;64.50;;
79460;SDS011;68929;42.666;23.324;2023-12-20T04:17:43;79.50;;;55.92;;
79460;SDS011;68929;42.666;23.324;2023-12-20T04:20:08;79.05;;;56.03;;
79460;SDS011;68929;42.666;23.324;2023-12-20T04:22:34;75.25;;;52.90;;
79460;SDS011;68929;42.666;23.324;2023-12-20T04:24:59;76.45;;;52.47;;
79460;SDS011;68929;42.666;23.324;2023-12-20T04:27:25;90.03;;;65.07;;
79460;SDS011;68929;42.666;23.324;2023-12-20T04:29:50;84.75;;;58.45;;
79460;SDS011;68929;42.666;23.324;2023-12-20T04:32:15;79.93;;;54.83;;
79460;SDS011;68929;42.666;23.324;2023-12-20T04:34:41;79.60;;;55.88;;
79460;SDS011;68929;42.666;23.324;2023-12-20T04:37:06;81.55;;;57.10;;
79460;SDS011;68929;42.666;23.324;2023-12-20T04:39:31;90.72;;;63.20;;
79460;SDS011;68929;42.666;23.324;2023-12-20T04:41:58;77.20;;;51.42;;
79460;SDS011;68929;42.666;23.324;2023-12-20T04:44:23;74.90;;;51.97;;
79460;SDS011;68929;42.666;23.324;2023-12-20T04:46:49;85.40;;;56.10;;
79460;SDS011;68929;42.666;23.324;2023-12-20T04:49:14;77.30;;;52.67;;
79460;SDS011;68929;42.666;23.324;2023-12-20T04:51:39;71.28;;;47.90;;
79460;SDS011;68929;42.666;23.324;2023-12-20T04:54:05;80.05;;;58.58;;
79460;SDS011;68929;42.666;23.324;2023-12-20T04:56:30;97.22;;;67.78;;
79460;SDS011;68929;42.666;23.324;2023-12-20T04:58:56;78.32;;;52.45;;
79460;SDS011;68929;42.666;23.324;2023-12-20T05:01:21;73.97;;;54.20;;
79460;SDS011;68929;42.666;23.324;2023-12-20T05:03:46;75.93;;;55.67;;
79460;SDS011;68929;42.666;23.324;2023-12-20T05:06:12;80.00;;;54.92;;
79460;SDS011;68929;42.666;23.324;2023-12-20T05:08:38;87.72;;;62.17;;
79460;SDS011;68929;42.666;23.324;2023-12-20T05:11:03;90.32;;;64.78;;
79460;SDS011;68929;42.666;23.324;2023-12-20T05:13:29;121.43;;;84.95;;
79460;SDS011;68929;42.666;23.324;2023-12-20T05:15:55;129.55;;;90.35;;
79460;SDS011;68929;42.666;23.324;2023-12-20T05:18:20;113.28;;;79.85;;
79460;SDS011;68929;42.666;23.324;2023-12-20T05:20:46;117.00;;;80.65;;
79460;SDS011;68929;42.666;23.324;2023-12-20T05:23:12;117.60;;;79.03;;
79460;SDS011;68929;42.666;23.324;2023-12-20T05:25:38;95.38;;;63.95;;
79460;SDS011;68929;42.666;23.324;2023-12-20T05:28:04;96.93;;;68.25;;
79460;SDS011;68929;42.666;23.324;2023-12-20T05:30:29;94.80;;;64.45;;
79460;SDS011;68929;42.666;23.324;2023-12-20T05:32:55;92.53;;;64.45;;
79460;SDS011;68929;42.666;23.324;2023-12-20T05:35:20;106.43;;;70.93;;
79460;SDS011;68929;42.666;23.324;2023-12-20T05:37:47;100.10;;;70.13;;
79460;SDS011;68929;42.666;23.324;2023-12-20T05:40:12;95.05;;;65.93;;
79460;SDS011;68929;42.666;23.324;2023-12-20T05:42:38;88.57;;;62.58;;
79460;SDS011;68929;42.666;23.324;2023-12-20T05:45:04;117.30;;;76.53;;
79460;SDS011;68929;42.666;23.324;2023-12-20T05:47:30;104.07;;;71.28;;
79460;SDS011;68929;42.666;23.324;2023-12-20T05:49:55;89.30;;;60.35;;
79460;SDS011;68929;42.666;23.324;2023-12-20T05:52:21;90.53;;;61.28;;
79460;SDS011;68929;42.666;23.324;2023-12-20T05:54:46;96.80;;;66.75;;
79460;SDS011;68929;42.666;23.324;2023-12-20T05:57:12;84.55;;;56.65;;
79460;SDS011;68929;42.666;23.324;2023-12-20T05:59:38;102.40;;;65.28;;
79460;SDS011;68929;42.666;23.324;2023-12-20T06:02:03;100.63;;;70.10;;
79460;SDS011;68929;42.666;23.324;2023-12-20T06:04:30;80.05;;;53.00;;
79460;SDS011;68929;42.666;23.324;2023-12-20T06:06:55;92.03;;;59.08;;
79460;SDS011;68929;42.666;23.324;2023-12-20T06:09:21;120.85;;;78.20;;
79460;SDS011;68929;42.666;23.324;2023-12-20T06:11:46;97.78;;;66.00;;
79460;SDS011;68929;42.666;23.324;2023-12-20T06:14:11;94.30;;;60.67;;
79460;SDS011;68929;42.666;23.324;2023-12-20T06:16:37;88.43;;;57.95;;
79460;SDS011;68929;42.666;23.324;2023-12-20T06:19:02;120.50;;;77.50;;
79460;SDS011;68929;42.666;23.324;2023-12-20T06:21:28;104.57;;;69.85;;
79460;SDS011;68929;42.666;23.324;2023-12-20T06:23:54;131.35;;;82.10;;
79460;SDS011;68929;42.666;23.324;2023-12-20T06:26:23;119.60;;;76.00;;
79460;SDS011;68929;42.666;23.324;2023-12-20T06:28:48;111.50;;;70.57;;
79460;SDS011;68929;42.666;23.324;2023-12-20T06:31:14;133.55;;;80.50;;
79460;SDS011;68929;42.666;23.324;2023-12-20T06:33:39;131.70;;;81.07;;
79460;SDS011;68929;42.666;23.324;2023-12-20T06:36:10;135.30;;;83.55;;
79460;SDS011;68929;42.666;23.324;2023-12-20T06:38:37;140.90;;;84.35;;
79460;SDS011;68929;42.666;23.324;2023-12-20T06:41:02;121.50;;;73.57;;
79460;SDS011;68929;42.666;23.324;2023-12-20T06:43:28;105.38;;;65.88;;
79460;SDS011;68929;42.666;23.324;2023-12-20T06:45:55;101.95;;;67.93;;
79460;SDS011;68929;42.666;23.324;2023-12-20T06:48:20;110.07;;;71.07;;
79460;SDS011;68929;42.666;23.324;2023-12-20T06:50:45;88.70;;;58.10;;
79460;SDS011;68929;42.666;23.324;2023-12-20T06:53:14;119.25;;;74.22;;
79460;SDS011;68929;42.666;23.324;2023-12-20T06:55:39;112.18;;;72.00;;
79460;SDS011;68929;42.666;23.324;2023-12-20T06:58:04;138.75;;;83.28;;
79460;SDS011;68929;42.666;23.324;2023-12-20T07:00:30;137.68;;;82.80;;
79460;SDS011;68929;42.666;23.324;2023-12-20T07:02:56;149.05;;;82.60;;
79460;SDS011;68929;42.666;23.324;2023-12-20T07:05:21;148.85;;;83.28;;
79460;SDS011;68929;42.666;23.324;2023-12-20T07:07:47;140.88;;;76.07;;
79460;SDS011;68929;42.666;23.324;2023-12-20T07:10:17;148.70;;;85.55;;
79460;SDS011;68929;42.666;23.324;2023-12-20T07:12:47;153.40;;;86.93;;
79460;SDS011;68929;42.666;23.324;2023-12-20T07:15:13;183.73;;;91.85;;
79460;SDS011;68929;42.666;23.324;2023-12-20T07:17:39;187.82;;;93.22;;
79460;SDS011;68929;42.666;23.324;2023-12-20T07:20:05;140.20;;;81.50;;
79460;SDS011;68929;42.666;23.324;2023-12-20T07:22:40;150.95;;;83.90;;
79460;SDS011;68929;42.666;23.324;2023-12-20T07:25:08;133.52;;;77.40;;
79460;SDS011;68929;42.666;23.324;2023-12-20T07:27:38;98.63;;;63.22;;
79460;SDS011;68929;42.666;23.324;2023-12-20T07:30:04;132.00;;;74.97;;
79460;SDS011;68929;42.666;23.324;2023-12-20T07:32:30;143.43;;;84.30;;
79460;SDS011;68929;42.666;23.324;2023-12-20T07:34:55;104.57;;;61.75;;
79460;SDS011;68929;42.666;23.324;2023-12-20T07:37:21;114.70;;;68.13;;
79460;SDS011;68929;42.666;23.324;2023-12-20T07:39:46;126.95;;;76.05;;
79460;SDS011;68929;42.666;23.324;2023-12-20T07:42:12;99.88;;;59.85;;
79460;SDS011;68929;42.666;23.324;2023-12-20T07:44:37;126.25;;;79.82;;
79460;SDS011;68929;42.666;23.324;2023-12-20T07:47:03;123.22;;;75.45;;
79460;SDS011;68929;42.666;23.324;2023-12-20T07:49:30;133.75;;;82.13;;
79460;SDS011;68929;42.666;23.324;2023-12-20T07:51:56;137.25;;;87.03;;
79460;SDS011;68929;42.666;23.324;2023-12-20T07:54:22;137.93;;;81.95;;
79460;SDS011;68929;42.666;23.324;2023-12-20T07:56:50;130.38;;;82.38;;
79460;SDS011;68929;42.666;23.324;2023-12-20T07:59:20;134.70;;;81.72;;
79460;SDS011;68929;42.666;23.324;2023-12-20T08:01:45;125.57;;;79.03;;
79460;SDS011;68929;42.666;23.324;2023-12-20T08:04:14;132.90;;;83.10;;
79460;SDS011;68929;42.666;23.324;2023-12-20T08:06:40;90.32;;;58.17;;
79460;SDS011;68929;42.666;23.324;2023-12-20T08:09:05;123.25;;;76.03;;
79460;SDS011;68929;42.666;23.324;2023-12-20T08:11:31;104.25;;;67.82;;
79460;SDS011;68929;42.666;23.324;2023-12-20T08:13:56;109.70;;;67.20;;
79460;SDS011;68929;42.666;23.324;2023-12-20T08:16:22;116.28;;;76.72;;
79460;SDS011;68929;42.666;23.324;2023-12-20T08:18:47;119.05;;;78.97;;
79460;SDS011;68929;42.666;23.324;2023-12-20T08:21:17;118.05;;;77.40;;
79460;SDS011;68929;42.666;23.324;2023-12-20T08:23:47;100.25;;;65.03;;
79460;SDS011;68929;42.666;23.324;2023-12-20T08:26:13;117.50;;;73.22;;
79460;SDS011;68929;42.666;23.324;2023-12-20T08:28:42;122.82;;;78.63;;
79460;SDS011;68929;42.666;23.324;2023-12-20T08:31:13;86.70;;;59.28;;
79460;SDS011;68929;42.666;23.324;2023-12-20T08:36:08;81.22;;;55.45;;
79460;SDS011;68929;42.666;23.324;2023-12-20T08:38:38;82.88;;;58.97;;
79460;SDS011;68929;42.666;23.324;2023-12-20T08:41:04;69.53;;;47.72;;
79460;SDS011;68929;42.666;23.324;2023-12-20T08:43:30;73.40;;;50.78;;
79460;SDS011;68929;42.666;23.324;2023-12-20T08:45:56;88.78;;;61.63;;
79460;SDS011;68929;42.666;23.324;2023-12-20T08:48:22;79.38;;;55.60;;
79460;SDS011;68929;42.666;23.324;2023-12-20T08:50:48;131.70;;;81.95;;
79460;SDS011;68929;42.666;23.324;2023-12-20T08:53:15;157.80;;;95.63;;
79460;SDS011;68929;42.666;23.324;2023-12-20T08:55:41;102.40;;;63.85;;
79460;SDS011;68929;42.666;23.324;2023-12-20T08:58:07;111.82;;;68.88;;
79460;SDS011;68929;42.666;23.324;2023-12-20T09:00:33;108.88;;;67.10;;
79460;SDS011;68929;42.666;23.324;2023-12-20T09:02:59;110.35;;;68.05;;
79460;SDS011;68929;42.666;23.324;2023-12-20T09:05:26;129.35;;;81.93;;
79460;SDS011;68929;42.666;23.324;2023-12-20T09:07:51;110.63;;;73.28;;
79460;SDS011;68929;42.666;23.324;2023-12-20T09:10:17;123.13;;;79.97;;
79460;SDS011;68929;42.666;23.324;2023-12-20T09:12:47;115.10;;;75.00;;
79460;SDS011;68929;42.666;23.324;2023-12-20T09:15:25;101.15;;;67.75;;
79460;SDS011;68929;42.666;23.324;2023-12-20T09:17:51;83.53;;;56.00;;
79460;SDS011;68929;42.666;23.324;2023-12-20T09:20:17;86.82;;;59.88;;
79460;SDS011;68929;42.666;23.324;2023-12-20T09:22:43;76.75;;;54.13;;
79460;SDS011;68929;42.666;23.324;2023-12-20T09:25:12;86.03;;;59.33;;
79460;SDS011;68929;42.666;23.324;2023-12-20T09:27:38;113.75;;;77.15;;
79460;SDS011;68929;42.666;23.324;2023-12-20T09:30:04;84.28;;;59.90;;
79460;SDS011;68929;42.666;23.324;2023-12-20T09:32:30;96.18;;;67.20;;
79460;SDS011;68929;42.666;23.324;2023-12-20T09:34:56;70.63;;;49.20;;
79460;SDS011;68929;42.666;23.324;2023-12-20T09:37:22;94.68;;;64.90;;
79460;SDS011;68929;42.666;23.324;2023-12-20T09:39:52;85.20;;;57.03;;
79460;SDS011;68929;42.666;23.324;2023-12-20T09:42:21;86.80;;;58.15;;
79460;SDS011;68929;42.666;23.324;2023-12-20T09:45:15;81.90;;;54.97;;
79460;SDS011;68929;42.666;23.324;2023-12-20T09:47:46;87.95;;;59.38;;
79460;SDS011;68929;42.666;23.324;2023-12-20T09:50:22;90.65;;;59.85;;
79460;SDS011;68929;42.666;23.324;2023-12-20T09:52:53;83.85;;;56.53;;
79460;SDS011;68929;42.666;23.324;2023-12-20T09:55:29;91.38;;;62.35;;
79460;SDS011;68929;42.666;23.324;2023-12-20T09:58:06;80.68;;;54.50;;
79460;SDS011;68929;42.666;23.324;2023-12-20T10:00:33;91.82;;;61.50;;
79460;SDS011;68929;42.666;23.324;2023-12-20T10:03:32;86.25;;;57.28;;
79460;SDS011;68929;42.666;23.324;2023-12-20T10:05:58;67.50;;;47.15;;
79460;SDS011;68929;42.666;23.324;2023-12-20T10:08:25;77.10;;;50.30;;
79460;SDS011;68929;42.666;23.324;2023-12-20T10:10:56;69.13;;;46.03;;
79460;SDS011;68929;42.666;23.324;2023-12-20T10:13:30;94.85;;;60.50;;
79460;SDS011;68929;42.666;23.324;2023-12-20T10:15:56;88.63;;;57.92;;
79460;SDS011;68929;42.666;23.324;2023-12-20T10:18:22;84.45;;;52.33;;
79460;SDS011;68929;42.666;23.324;2023-12-20T10:20:48;86.75;;;58.00;;
79460;SDS011;68929;42.666;23.324;2023-12-20T10:23:18;100.38;;;68.03;;
79460;SDS011;68929;42.666;23.324;2023-12-20T10:25:57;88.35;;;56.75;;
79460;SDS011;68929;42.666;23.324;2023-12-20T10:28:23;89.93;;;59.28;;
79460;SDS011;68929;42.666;23.324;2023-12-20T10:30:56;101.43;;;66.63;;
79460;SDS011;68929;42.666;23.324;2023-12-20T10:33:30;66.22;;;44.88;;
79460;SDS011;68929;42.666;23.324;2023-12-20T10:35:58;98.43;;;64.32;;
79460;SDS011;68929;42.666;23.324;2023-12-20T10:38:23;100.22;;;64.18;;
79460;SDS011;68929;42.666;23.324;2023-12-20T10:40:49;105.38;;;68.50;;
79460;SDS011;68929;42.666;23.324;2023-12-20T10:43:25;97.32;;;64.07;;
79460;SDS011;68929;42.666;23.324;2023-12-20T10:45:53;93.05;;;63.22;;
79460;SDS011;68929;42.666;23.324;2023-12-20T10:48:19;86.97;;;54.42;;
79460;SDS011;68929;42.666;23.324;2023-12-20T10:50:47;96.22;;;58.85;;
79460;SDS011;68929;42.666;23.324;2023-12-20T10:53:13;131.02;;;79.40;;
79460;SDS011;68929;42.666;23.324;2023-12-20T10:55:39;117.68;;;68.90;;
79460;SDS011;68929;42.666;23.324;2023-12-20T10:58:08;92.75;;;56.67;;
79460;SDS011;68929;42.666;23.324;2023-12-20T11:00:39;120.65;;;73.43;;
79460;SDS011;68929;42.666;23.324;2023-12-20T11:03:09;108.90;;;64.68;;
79460;SDS011;68929;42.666;23.324;2023-12-20T11:05:49;97.18;;;58.42;;
79460;SDS011;68929;42.666;23.324;2023-12-20T11:09:04;93.35;;;54.85;;
79460;SDS011;68929;42.666;23.324;2023-12-20T11:17:10;116.20;;;66.43;;
79460;SDS011;68929;42.666;23.324;2023-12-20T11:22:32;119.40;;;69.75;;
79460;SDS011;68929;42.666;23.324;2023-12-20T11:25:08;83.50;;;49.85;;
79460;SDS011;68929;42.666;23.324;2023-12-20T11:27:35;86.13;;;51.42;;
79460;SDS011;68929;42.666;23.324;2023-12-20T11:30:02;105.25;;;62.72;;
79460;SDS011;68929;42.666;23.324;2023-12-20T11:32:32;99.25;;;59.60;;
79460;SDS011;68929;42.666;23.324;2023-12-20T11:37:38;86.28;;;51.95;;
79460;SDS011;68929;42.666;23.324;2023-12-20T11:40:11;82.47;;;52.28;;
79460;SDS011;68929;42.666;23.324;2023-12-20T11:42:42;74.95;;;47.90;;
79460;SDS011;68929;42.666;23.324;2023-12-20T11:45:11;94.22;;;59.38;;
79460;SDS011;68929;42.666;23.324;2023-12-20T11:47:42;65.38;;;40.63;;
79460;SDS011;68929;42.666;23.324;2023-12-20T11:50:14;84.63;;;56.17;;
79460;SDS011;68929;42.666;23.324;2023-12-20T11:52:44;100.35;;;62.88;;
79460;SDS011;68929;42.666;23.324;2023-12-20T11:55:09;91.15;;;56.58;;
79460;SDS011;68929;42.666;23.324;2023-12-20T11:57:35;82.55;;;53.22;;
79460;SDS011;68929;42.666;23.324;2023-12-20T12:00:01;81.50;;;53.10;;
79460;SDS011;68929;42.666;23.324;2023-12-20T12:02:27;88.25;;;55.60;;
79460;SDS011;68929;42.666;23.324;2023-12-20T12:04:57;59.78;;;39.75;;
79460;SDS011;68929;42.666;23.324;2023-12-20T12:07:29;70.68;;;46.50;;
79460;SDS011;68929;42.666;23.324;2023-12-20T12:10:01;68.07;;;45.70;;
79460;SDS011;68929;42.666;23.324;2023-12-20T12:12:28;73.53;;;49.70;;
79460;SDS011;68929;42.666;23.324;2023-12-20T12:14:55;72.07;;;48.75;;
79460;SDS011;68929;42.666;23.324;2023-12-20T12:17:22;76.53;;;50.08;;
79460;SDS011;68929;42.666;23.324;2023-12-20T12:19:48;80.03;;;54.00;;
79460;SDS011;68929;42.666;23.324;2023-12-20T12:22:14;74.78;;;50.88;;
79460;SDS011;68929;42.666;23.324;2023-12-20T12:24:42;77.78;;;50.47;;
79460;SDS011;68929;42.666;23.324;2023-12-20T12:27:09;71.63;;;46.17;;
79460;SDS011;68929;42.666;23.324;2023-12-20T12:30:02;85.45;;;55.88;;
79460;SDS011;68929;42.666;23.324;2023-12-20T12:32:29;69.25;;;47.80;;
79460;SDS011;68929;42.666;23.324;2023-12-20T12:34:57;89.95;;;59.33;;
79460;SDS011;68929;42.666;23.324;2023-12-20T12:37:22;76.18;;;49.83;;
79460;SDS011;68929;42.666;23.324;2023-12-20T12:39:49;97.22;;;64.63;;
79460;SDS011;68929;42.666;23.324;2023-12-20T12:42:17;73.03;;;48.72;;
79460;SDS011;68929;42.666;23.324;2023-12-20T12:44:46;93.78;;;57.90;;
79460;SDS011;68929;42.666;23.324;2023-12-20T12:47:15;72.85;;;50.00;;
79460;SDS011;68929;42.666;23.324;2023-12-20T12:49:41;101.70;;;66.07;;
79460;SDS011;68929;42.666;23.324;2023-12-20T12:52:06;78.05;;;52.28;;
79460;SDS011;68929;42.666;23.324;2023-12-20T12:54:32;122.72;;;76.53;;
79460;SDS011;68929;42.666;23.324;2023-12-20T12:56:58;128.07;;;79.95;;
79460;SDS011;68929;42.666;23.324;2023-12-20T12:59:23;79.68;;;48.90;;
79460;SDS011;68929;42.666;23.324;2023-12-20T13:01:51;118.13;;;70.25;;
79460;SDS011;68929;42.666;23.324;2023-12-20T13:04:21;124.63;;;77.72;;
79460;SDS011;68929;42.666;23.324;2023-12-20T13:06:52;91.82;;;56.17;;
79460;SDS011;68929;42.666;23.324;2023-12-20T13:09:17;109.30;;;66.20;;
79460;SDS011;68929;42.666;23.324;2023-12-20T13:11:44;96.03;;;59.72;;
79460;SDS011;68929;42.666;23.324;2023-12-20T13:14:09;115.18;;;67.72;;
79460;SDS011;68929;42.666;23.324;2023-12-20T13:16:44;102.03;;;58.25;;
79460;SDS011;68929;42.666;23.324;2023-12-20T13:19:14;100.47;;;62.22;;
79460;SDS011;68929;42.666;23.324;2023-12-20T13:21:40;115.18;;;63.42;;
79460;SDS011;68929;42.666;23.324;2023-12-20T13:24:05;94.55;;;59.33;;
79460;SDS011;68929;42.666;23.324;2023-12-20T13:26:31;98.57;;;59.50;;
79460;SDS011;68929;42.666;23.324;2023-12-20T13:28:57;80.38;;;49.88;;
79460;SDS011;68929;42.666;23.324;2023-12-20T13:31:23;95.88;;;58.40;;
79460;SDS011;68929;42.666;23.324;2023-12-20T13:33:49;111.22;;;67.57;;
79460;SDS011;68929;42.666;23.324;2023-12-20T13:36:18;115.78;;;66.85;;
79460;SDS011;68929;42.666;23.324;2023-12-20T13:38:45;117.00;;;68.65;;
79460;SDS011;68929;42.666;23.324;2023-12-20T13:41:11;101.20;;;62.80;;
79460;SDS011;68929;42.666;23.324;2023-12-20T13:43:37;96.53;;;55.95;;
79460;SDS011;68929;42.666;23.324;2023-12-20T13:46:03;108.70;;;63.55;;
79460;SDS011;68929;42.666;23.324;2023-12-20T13:48:28;109.60;;;64.82;;
79460;SDS011;68929;42.666;23.324;2023-12-20T13:50:54;121.13;;;72.72;;
79460;SDS011;68929;42.666;23.324;2023-12-20T13:53:24;138.27;;;78.05;;
79460;SDS011;68929;42.666;23.324;2023-12-20T13:55:50;99.80;;;60.13;;
79460;SDS011;68929;42.666;23.324;2023-12-20T13:58:19;129.27;;;74.22;;
79460;SDS011;68929;42.666;23.324;2023-12-20T14:00:49;89.47;;;53.78;;
79460;SDS011;68929;42.666;23.324;2023-12-20T14:03:14;98.60;;;58.03;;
79460;SDS011;68929;42.666;23.324;2023-12-20T14:05:40;88.13;;;50.70;;
79460;SDS011;68929;42.666;23.324;2023-12-20T14:08:08;144.40;;;82.38;;
79460;SDS011;68929;42.666;23.324;2023-12-20T14:10:37;134.63;;;75.68;;
79460;SDS011;68929;42.666;23.324;2023-12-20T14:13:07;129.23;;;75.07;;
79460;SDS011;68929;42.666;23.324;2023-12-20T14:15:35;165.00;;;96.05;;
79460;SDS011;68929;42.666;23.324;2023-12-20T14:18:05;111.75;;;62.95;;